sensor_id;sensor_type;location;lat;lon;timestamp;P1;durP1;ratioP1;P2;durP2;ratioP2
15112;SDS011;7657;50.140;7.076;2023-06-14T00:00:41;5.05;;;3.92;;
15112;SDS011;7657;50.140;7.076;2023-06-14T00:03:09;5.95;;;4.22;;
15112;SDS011;7657;50.140;7.076;2023-06-14T00:05:37;5.85;;;4.45;;
15112;SDS011;7657;50.140;7.076;2023-06-14T00:08:08;6.90;;;4.20;;
15112;SDS011;7657;50.140;7.076;2023-06-14T00:10:35;6.57;;;4.22;;
15112;SDS011;7657;50.140;7.076;2023-06-14T00:13:03;4.28;;;3.85;;
15112;SDS011;7657;50.140;7.076;2023-06-14T00:15:32;4.57;;;4.18;;
15112;SDS011;7657;50.140;7.076;2023-06-14T00:17:59;5.28;;;4.03;;
15112;SDS011;7657;50.140;7.076;2023-06-14T00:20:26;4.53;;;4.03;;
15112;SDS011;7657;50.140;7.076;2023-06-14T00:22:53;4.57;;;4.03;;
15112;SDS011;7657;50.140;7.076;2023-06-14T00:25:21;4.63;;;4.15;;
15112;SDS011;7657;50.140;7.076;2023-06-14T00:27:48;4.82;;;4.00;;
15112;SDS011;7657;50.140;7.076;2023-06-14T00:30:17;6.55;;;4.00;;
15112;SDS011;7657;50.140;7.076;2023-06-14T00:32:44;7.85;;;4.53;;
15112;SDS011;7657;50.140;7.076;2023-06-14T00:35:11;5.80;;;4.13;;
15112;SDS011;7657;50.140;7.076;2023-06-14T00:37:38;4.95;;;4.20;;
15112;SDS011;7657;50.140;7.076;2023-06-14T00:40:06;4.35;;;3.95;;
15112;SDS011;7657;50.140;7.076;2023-06-14T00:42:33;6.00;;;4.18;;
15112;SDS011;7657;50.140;7.076;2023-06-14T00:45:00;5.95;;;4.60;;
15112;SDS011;7657;50.140;7.076;2023-06-14T00:47:28;4.32;;;3.92;;
15112;SDS011;7657;50.140;7.076;2023-06-14T00:49:55;4.63;;;4.22;;
15112;SDS011;7657;50.140;7.076;2023-06-14T00:52:23;5.82;;;4.32;;
15112;SDS011;7657;50.140;7.076;2023-06-14T00:54:50;4.72;;;4.00;;
15112;SDS011;7657;50.140;7.076;2023-06-14T00:57:17;6.82;;;4.13;;
15112;SDS011;7657;50.140;7.076;2023-06-14T00:59:47;4.50;;;4.10;;
15112;SDS011;7657;50.140;7.076;2023-06-14T01:02:14;5.90;;;4.38;;
15112;SDS011;7657;50.140;7.076;2023-06-14T01:04:43;7.00;;;4.55;;
15112;SDS011;7657;50.140;7.076;2023-06-14T01:07:15;5.90;;;4.28;;
15112;SDS011;7657;50.140;7.076;2023-06-14T01:09:55;5.00;;;4.35;;
15112;SDS011;7657;50.140;7.076;2023-06-14T01:12:29;8.85;;;4.47;;
15112;SDS011;7657;50.140;7.076;2023-06-14T01:15:02;5.32;;;4.57;;
15112;SDS011;7657;50.140;7.076;2023-06-14T01:17:29;4.88;;;4.00;;
15112;SDS011;7657;50.140;7.076;2023-06-14T01:19:59;5.25;;;4.30;;
15112;SDS011;7657;50.140;7.076;2023-06-14T01:22:28;6.32;;;3.88;;
15112;SDS011;7657;50.140;7.076;2023-06-14T01:24:57;4.97;;;4.30;;
15112;SDS011;7657;50.140;7.076;2023-06-14T01:27:24;6.30;;;4.38;;
15112;SDS011;7657;50.140;7.076;2023-06-14T01:29:54;7.32;;;4.38;;
15112;SDS011;7657;50.140;7.076;2023-06-14T01:32:23;6.15;;;4.32;;
15112;SDS011;7657;50.140;7.076;2023-06-14T01:34:50;4.75;;;4.15;;
15112;SDS011;7657;50.140;7.076;2023-06-14T01:37:17;6.53;;;4.30;;
15112;SDS011;7657;50.140;7.076;2023-06-14T01:39:46;7.28;;;4.28;;
15112;SDS011;7657;50.140;7.076;2023-06-14T01:42:15;4.68;;;4.10;;
15112;SDS011;7657;50.140;7.076;2023-06-14T01:44:43;5.20;;;3.85;;
15112;SDS011;7657;50.140;7.076;2023-06-14T01:47:10;5.68;;;4.45;;
15112;SDS011;7657;50.140;7.076;2023-06-14T01:49:38;6.90;;;4.55;;
15112;SDS011;7657;50.140;7.076;2023-06-14T01:52:05;5.82;;;4.20;;
15112;SDS011;7657;50.140;7.076;2023-06-14T01:54:34;5.43;;;4.18;;
15112;SDS011;7657;50.140;7.076;2023-06-14T01:57:07;5.45;;;4.38;;
15112;SDS011;7657;50.140;7.076;2023-06-14T01:59:36;6.50;;;4.40;;
15112;SDS011;7657;50.140;7.076;2023-06-14T02:02:04;5.95;;;4.20;;
15112;SDS011;7657;50.140;7.076;2023-06-14T02:04:31;6.38;;;4.50;;
15112;SDS011;7657;50.140;7.076;2023-06-14T02:06:58;5.20;;;4.18;;
15112;SDS011;7657;50.140;7.076;2023-06-14T02:09:24;5.45;;;4.13;;
15112;SDS011;7657;50.140;7.076;2023-06-14T02:11:51;4.88;;;4.18;;
15112;SDS011;7657;50.140;7.076;2023-06-14T02:14:18;8.50;;;4.50;;
15112;SDS011;7657;50.140;7.076;2023-06-14T02:16:46;5.75;;;4.30;;
15112;SDS011;7657;50.140;7.076;2023-06-14T02:19:15;4.65;;;3.97;;
15112;SDS011;7657;50.140;7.076;2023-06-14T02:21:42;4.95;;;4.18;;
15112;SDS011;7657;50.140;7.076;2023-06-14T02:24:08;5.00;;;4.45;;
15112;SDS011;7657;50.140;7.076;2023-06-14T02:26:35;9.10;;;4.55;;
15112;SDS011;7657;50.140;7.076;2023-06-14T02:29:03;5.60;;;4.10;;
15112;SDS011;7657;50.140;7.076;2023-06-14T02:31:30;6.15;;;4.07;;
15112;SDS011;7657;50.140;7.076;2023-06-14T02:33:59;8.27;;;4.28;;
15112;SDS011;7657;50.140;7.076;2023-06-14T02:36:26;4.97;;;4.40;;
15112;SDS011;7657;50.140;7.076;2023-06-14T02:38:54;6.25;;;4.10;;
15112;SDS011;7657;50.140;7.076;2023-06-14T02:41:22;6.43;;;4.63;;
15112;SDS011;7657;50.140;7.076;2023-06-14T02:43:49;7.68;;;4.20;;
15112;SDS011;7657;50.140;7.076;2023-06-14T02:46:16;7.22;;;4.90;;
15112;SDS011;7657;50.140;7.076;2023-06-14T02:48:43;5.18;;;4.05;;
15112;SDS011;7657;50.140;7.076;2023-06-14T02:51:11;4.72;;;4.20;;
15112;SDS011;7657;50.140;7.076;2023-06-14T02:53:38;4.30;;;3.90;;
15112;SDS011;7657;50.140;7.076;2023-06-14T02:56:05;4.95;;;3.80;;
15112;SDS011;7657;50.140;7.076;2023-06-14T02:58:33;5.63;;;4.20;;
15112;SDS011;7657;50.140;7.076;2023-06-14T03:01:00;6.80;;;4.65;;
15112;SDS011;7657;50.140;7.076;2023-06-14T03:03:28;7.57;;;4.53;;
15112;SDS011;7657;50.140;7.076;2023-06-14T03:05:55;4.93;;;3.90;;
15112;SDS011;7657;50.140;7.076;2023-06-14T03:08:23;6.07;;;4.00;;
15112;SDS011;7657;50.140;7.076;2023-06-14T03:10:52;6.57;;;3.97;;
15112;SDS011;7657;50.140;7.076;2023-06-14T03:13:21;4.18;;;3.78;;
15112;SDS011;7657;50.140;7.076;2023-06-14T03:15:48;6.90;;;4.38;;
15112;SDS011;7657;50.140;7.076;2023-06-14T03:18:15;5.03;;;3.75;;
15112;SDS011;7657;50.140;7.076;2023-06-14T03:20:43;4.22;;;3.75;;
15112;SDS011;7657;50.140;7.076;2023-06-14T03:23:10;7.95;;;4.60;;
15112;SDS011;7657;50.140;7.076;2023-06-14T03:25:39;4.63;;;4.15;;
15112;SDS011;7657;50.140;7.076;2023-06-14T03:28:07;5.25;;;3.85;;
15112;SDS011;7657;50.140;7.076;2023-06-14T03:30:34;4.32;;;3.92;;
15112;SDS011;7657;50.140;7.076;2023-06-14T03:33:01;6.50;;;4.15;;
15112;SDS011;7657;50.140;7.076;2023-06-14T03:35:28;4.22;;;3.83;;
15112;SDS011;7657;50.140;7.076;2023-06-14T03:37:55;5.82;;;4.22;;
15112;SDS011;7657;50.140;7.076;2023-06-14T03:40:22;6.43;;;4.32;;
15112;SDS011;7657;50.140;7.076;2023-06-14T03:42:53;6.22;;;4.07;;
15112;SDS011;7657;50.140;7.076;2023-06-14T03:45:19;5.55;;;3.58;;
15112;SDS011;7657;50.140;7.076;2023-06-14T03:47:47;4.90;;;3.55;;
15112;SDS011;7657;50.140;7.076;2023-06-14T03:50:14;5.03;;;3.80;;
15112;SDS011;7657;50.140;7.076;2023-06-14T03:52:41;4.43;;;3.70;;
15112;SDS011;7657;50.140;7.076;2023-06-14T03:55:08;4.63;;;3.97;;
15112;SDS011;7657;50.140;7.076;2023-06-14T03:57:38;4.75;;;4.25;;
15112;SDS011;7657;50.140;7.076;2023-06-14T04:00:07;4.55;;;4.03;;
15112;SDS011;7657;50.140;7.076;2023-06-14T04:02:36;5.70;;;3.80;;
15112;SDS011;7657;50.140;7.076;2023-06-14T04:05:03;5.53;;;4.13;;
15112;SDS011;7657;50.140;7.076;2023-06-14T04:07:30;4.60;;;4.00;;
15112;SDS011;7657;50.140;7.076;2023-06-14T04:09:57;4.55;;;3.90;;
15112;SDS011;7657;50.140;7.076;2023-06-14T04:12:24;8.05;;;3.85;;
15112;SDS011;7657;50.140;7.076;2023-06-14T04:14:51;4.18;;;3.67;;
15112;SDS011;7657;50.140;7.076;2023-06-14T04:17:19;6.32;;;4.03;;
15112;SDS011;7657;50.140;7.076;2023-06-14T04:19:46;6.10;;;3.90;;
15112;SDS011;7657;50.140;7.076;2023-06-14T04:22:13;4.68;;;3.63;;
15112;SDS011;7657;50.140;7.076;2023-06-14T04:24:40;5.78;;;3.90;;
15112;SDS011;7657;50.140;7.076;2023-06-14T04:27:07;5.15;;;3.58;;
15112;SDS011;7657;50.140;7.076;2023-06-14T04:29:34;4.18;;;3.45;;
15112;SDS011;7657;50.140;7.076;2023-06-14T04:32:01;4.40;;;3.70;;
15112;SDS011;7657;50.140;7.076;2023-06-14T04:34:30;5.95;;;3.95;;
15112;SDS011;7657;50.140;7.076;2023-06-14T04:36:59;4.75;;;3.60;;
15112;SDS011;7657;50.140;7.076;2023-06-14T04:39:26;6.45;;;3.63;;
15112;SDS011;7657;50.140;7.076;2023-06-14T04:41:53;7.65;;;3.85;;
15112;SDS011;7657;50.140;7.076;2023-06-14T04:44:22;4.07;;;3.63;;
15112;SDS011;7657;50.140;7.076;2023-06-14T04:46:54;9.27;;;3.33;;
15112;SDS011;7657;50.140;7.076;2023-06-14T04:49:23;5.78;;;3.92;;
15112;SDS011;7657;50.140;7.076;2023-06-14T04:51:52;6.63;;;3.83;;
15112;SDS011;7657;50.140;7.076;2023-06-14T04:54:22;5.80;;;3.80;;
15112;SDS011;7657;50.140;7.076;2023-06-14T04:56:50;6.63;;;3.33;;
15112;SDS011;7657;50.140;7.076;2023-06-14T04:59:18;5.93;;;3.38;;
15112;SDS011;7657;50.140;7.076;2023-06-14T05:01:45;4.90;;;3.90;;
15112;SDS011;7657;50.140;7.076;2023-06-14T05:04:13;4.20;;;3.70;;
15112;SDS011;7657;50.140;7.076;2023-06-14T05:06:40;3.88;;;3.50;;
15112;SDS011;7657;50.140;7.076;2023-06-14T05:09:11;7.90;;;3.50;;
15112;SDS011;7657;50.140;7.076;2023-06-14T05:11:38;5.13;;;3.42;;
15112;SDS011;7657;50.140;7.076;2023-06-14T05:14:07;6.07;;;3.75;;
15112;SDS011;7657;50.140;7.076;2023-06-14T05:16:34;7.03;;;3.83;;
15112;SDS011;7657;50.140;7.076;2023-06-14T05:19:01;6.82;;;3.42;;
15112;SDS011;7657;50.140;7.076;2023-06-14T05:21:29;4.63;;;3.40;;
15112;SDS011;7657;50.140;7.076;2023-06-14T05:23:57;4.72;;;3.08;;
15112;SDS011;7657;50.140;7.076;2023-06-14T05:26:25;6.20;;;3.60;;
15112;SDS011;7657;50.140;7.076;2023-06-14T05:28:53;5.32;;;3.78;;
15112;SDS011;7657;50.140;7.076;2023-06-14T05:31:21;3.70;;;3.33;;
15112;SDS011;7657;50.140;7.076;2023-06-14T05:33:49;5.25;;;3.80;;
15112;SDS011;7657;50.140;7.076;2023-06-14T05:36:16;7.57;;;3.92;;
15112;SDS011;7657;50.140;7.076;2023-06-14T05:38:43;4.30;;;3.58;;
15112;SDS011;7657;50.140;7.076;2023-06-14T05:41:10;4.88;;;3.78;;
15112;SDS011;7657;50.140;7.076;2023-06-14T05:43:38;4.22;;;3.60;;
15112;SDS011;7657;50.140;7.076;2023-06-14T05:46:05;9.82;;;3.88;;
15112;SDS011;7657;50.140;7.076;2023-06-14T05:48:32;7.13;;;3.72;;
15112;SDS011;7657;50.140;7.076;2023-06-14T05:50:59;5.60;;;3.40;;
15112;SDS011;7657;50.140;7.076;2023-06-14T05:53:25;5.55;;;3.80;;
15112;SDS011;7657;50.140;7.076;2023-06-14T05:55:52;5.45;;;3.63;;
15112;SDS011;7657;50.140;7.076;2023-06-14T05:58:20;5.30;;;3.63;;
15112;SDS011;7657;50.140;7.076;2023-06-14T06:00:48;4.22;;;3.55;;
15112;SDS011;7657;50.140;7.076;2023-06-14T06:03:15;5.15;;;3.72;;
15112;SDS011;7657;50.140;7.076;2023-06-14T06:05:42;6.45;;;3.65;;
15112;SDS011;7657;50.140;7.076;2023-06-14T06:08:09;5.40;;;3.38;;
15112;SDS011;7657;50.140;7.076;2023-06-14T06:10:36;4.95;;;3.80;;
15112;SDS011;7657;50.140;7.076;2023-06-14T06:13:03;4.85;;;3.58;;
15112;SDS011;7657;50.140;7.076;2023-06-14T06:15:30;4.45;;;3.67;;
15112;SDS011;7657;50.140;7.076;2023-06-14T06:17:58;10.35;;;3.58;;
15112;SDS011;7657;50.140;7.076;2023-06-14T06:20:25;4.93;;;3.58;;
15112;SDS011;7657;50.140;7.076;2023-06-14T06:22:53;7.20;;;3.80;;
15112;SDS011;7657;50.140;7.076;2023-06-14T06:25:20;5.13;;;3.65;;
15112;SDS011;7657;50.140;7.076;2023-06-14T06:27:51;9.88;;;4.05;;
15112;SDS011;7657;50.140;7.076;2023-06-14T06:30:18;6.78;;;3.53;;
15112;SDS011;7657;50.140;7.076;2023-06-14T06:32:45;8.45;;;3.53;;
15112;SDS011;7657;50.140;7.076;2023-06-14T06:35:14;4.63;;;3.42;;
15112;SDS011;7657;50.140;7.076;2023-06-14T06:37:41;5.90;;;3.38;;
15112;SDS011;7657;50.140;7.076;2023-06-14T06:40:08;8.55;;;3.70;;
15112;SDS011;7657;50.140;7.076;2023-06-14T06:42:35;4.50;;;3.58;;
15112;SDS011;7657;50.140;7.076;2023-06-14T06:45:02;9.02;;;3.88;;
15112;SDS011;7657;50.140;7.076;2023-06-14T06:47:30;5.45;;;4.18;;
15112;SDS011;7657;50.140;7.076;2023-06-14T06:49:57;3.70;;;3.40;;
15112;SDS011;7657;50.140;7.076;2023-06-14T06:52:25;5.75;;;3.80;;
15112;SDS011;7657;50.140;7.076;2023-06-14T06:54:52;5.65;;;3.65;;
15112;SDS011;7657;50.140;7.076;2023-06-14T06:57:20;4.30;;;3.55;;
15112;SDS011;7657;50.140;7.076;2023-06-14T06:59:47;5.75;;;3.47;;
15112;SDS011;7657;50.140;7.076;2023-06-14T07:02:14;6.78;;;3.55;;
15112;SDS011;7657;50.140;7.076;2023-06-14T07:04:41;3.45;;;3.15;;
15112;SDS011;7657;50.140;7.076;2023-06-14T07:07:08;4.40;;;3.00;;
15112;SDS011;7657;50.140;7.076;2023-06-14T07:09:37;4.78;;;3.40;;
15112;SDS011;7657;50.140;7.076;2023-06-14T07:12:04;5.45;;;3.05;;
15112;SDS011;7657;50.140;7.076;2023-06-14T07:14:31;9.57;;;3.20;;
15112;SDS011;7657;50.140;7.076;2023-06-14T07:16:58;6.07;;;3.70;;
15112;SDS011;7657;50.140;7.076;2023-06-14T07:19:25;3.38;;;2.95;;
15112;SDS011;7657;50.140;7.076;2023-06-14T07:21:52;5.50;;;3.60;;
15112;SDS011;7657;50.140;7.076;2023-06-14T07:24:19;5.65;;;3.60;;
15112;SDS011;7657;50.140;7.076;2023-06-14T07:26:48;3.70;;;3.22;;
15112;SDS011;7657;50.140;7.076;2023-06-14T07:29:15;5.70;;;3.45;;
15112;SDS011;7657;50.140;7.076;2023-06-14T07:31:42;4.65;;;3.42;;
15112;SDS011;7657;50.140;7.076;2023-06-14T07:34:09;5.38;;;3.47;;
15112;SDS011;7657;50.140;7.076;2023-06-14T07:36:36;6.50;;;3.40;;
15112;SDS011;7657;50.140;7.076;2023-06-14T07:39:03;6.05;;;3.40;;
15112;SDS011;7657;50.140;7.076;2023-06-14T07:41:31;3.95;;;3.40;;
15112;SDS011;7657;50.140;7.076;2023-06-14T07:43:59;3.65;;;3.05;;
15112;SDS011;7657;50.140;7.076;2023-06-14T07:46:26;4.80;;;3.30;;
15112;SDS011;7657;50.140;7.076;2023-06-14T07:48:53;5.85;;;2.97;;
15112;SDS011;7657;50.140;7.076;2023-06-14T07:51:20;5.10;;;3.35;;
15112;SDS011;7657;50.140;7.076;2023-06-14T07:53:48;4.38;;;3.10;;
15112;SDS011;7657;50.140;7.076;2023-06-14T07:56:15;6.90;;;3.13;;
15112;SDS011;7657;50.140;7.076;2023-06-14T07:58:42;3.88;;;3.15;;
15112;SDS011;7657;50.140;7.076;2023-06-14T08:01:10;4.68;;;3.30;;
15112;SDS011;7657;50.140;7.076;2023-06-14T08:03:37;8.02;;;3.03;;
15112;SDS011;7657;50.140;7.076;2023-06-14T08:06:06;10.55;;;3.35;;
15112;SDS011;7657;50.140;7.076;2023-06-14T08:08:33;3.35;;;2.60;;
15112;SDS011;7657;50.140;7.076;2023-06-14T08:11:00;5.82;;;2.95;;
15112;SDS011;7657;50.140;7.076;2023-06-14T08:13:27;3.15;;;2.85;;
15112;SDS011;7657;50.140;7.076;2023-06-14T08:15:53;3.17;;;2.90;;
15112;SDS011;7657;50.140;7.076;2023-06-14T08:18:23;4.28;;;2.70;;
15112;SDS011;7657;50.140;7.076;2023-06-14T08:20:51;4.28;;;2.85;;
15112;SDS011;7657;50.140;7.076;2023-06-14T08:23:19;4.68;;;2.85;;
15112;SDS011;7657;50.140;7.076;2023-06-14T08:25:46;4.25;;;2.97;;
15112;SDS011;7657;50.140;7.076;2023-06-14T08:28:13;4.18;;;2.92;;
15112;SDS011;7657;50.140;7.076;2023-06-14T08:30:41;5.18;;;2.95;;
15112;SDS011;7657;50.140;7.076;2023-06-14T08:33:08;7.28;;;3.00;;
15112;SDS011;7657;50.140;7.076;2023-06-14T08:35:36;3.00;;;2.67;;
15112;SDS011;7657;50.140;7.076;2023-06-14T08:38:04;3.13;;;2.67;;
15112;SDS011;7657;50.140;7.076;2023-06-14T08:40:31;7.38;;;2.92;;
15112;SDS011;7657;50.140;7.076;2023-06-14T08:43:04;3.83;;;2.63;;
15112;SDS011;7657;50.140;7.076;2023-06-14T08:45:31;5.45;;;2.75;;
15112;SDS011;7657;50.140;7.076;2023-06-14T08:47:58;3.58;;;2.42;;
15112;SDS011;7657;50.140;7.076;2023-06-14T08:50:26;3.63;;;2.30;;
15112;SDS011;7657;50.140;7.076;2023-06-14T08:52:57;3.22;;;2.33;;
15112;SDS011;7657;50.140;7.076;2023-06-14T08:55:27;4.25;;;2.60;;
15112;SDS011;7657;50.140;7.076;2023-06-14T08:57:55;3.05;;;2.38;;
15112;SDS011;7657;50.140;7.076;2023-06-14T09:00:23;3.55;;;2.22;;
15112;SDS011;7657;50.140;7.076;2023-06-14T09:02:51;7.75;;;2.67;;
15112;SDS011;7657;50.140;7.076;2023-06-14T09:05:22;3.85;;;2.53;;
15112;SDS011;7657;50.140;7.076;2023-06-14T09:07:49;4.72;;;2.40;;
15112;SDS011;7657;50.140;7.076;2023-06-14T09:10:19;5.20;;;2.17;;
15112;SDS011;7657;50.140;7.076;2023-06-14T09:12:47;2.40;;;2.20;;
15112;SDS011;7657;50.140;7.076;2023-06-14T09:15:15;2.33;;;2.10;;
15112;SDS011;7657;50.140;7.076;2023-06-14T09:17:42;2.15;;;1.95;;
15112;SDS011;7657;50.140;7.076;2023-06-14T09:20:09;2.75;;;2.22;;
15112;SDS011;7657;50.140;7.076;2023-06-14T09:22:42;3.63;;;2.30;;
15112;SDS011;7657;50.140;7.076;2023-06-14T09:25:09;3.95;;;2.50;;
15112;SDS011;7657;50.140;7.076;2023-06-14T09:27:38;5.22;;;2.45;;
15112;SDS011;7657;50.140;7.076;2023-06-14T09:30:10;5.00;;;2.20;;
15112;SDS011;7657;50.140;7.076;2023-06-14T09:32:37;2.70;;;2.50;;
15112;SDS011;7657;50.140;7.076;2023-06-14T09:35:05;2.63;;;2.25;;
15112;SDS011;7657;50.140;7.076;2023-06-14T09:37:33;3.17;;;1.98;;
15112;SDS011;7657;50.140;7.076;2023-06-14T09:40:03;2.63;;;2.20;;
15112;SDS011;7657;50.140;7.076;2023-06-14T09:42:32;5.57;;;2.22;;
15112;SDS011;7657;50.140;7.076;2023-06-14T09:45:02;3.75;;;2.17;;
15112;SDS011;7657;50.140;7.076;2023-06-14T09:47:29;3.45;;;2.22;;
15112;SDS011;7657;50.140;7.076;2023-06-14T09:49:56;4.35;;;1.88;;
15112;SDS011;7657;50.140;7.076;2023-06-14T09:52:25;2.53;;;2.10;;
15112;SDS011;7657;50.140;7.076;2023-06-14T09:54:53;2.65;;;2.40;;
15112;SDS011;7657;50.140;7.076;2023-06-14T09:57:22;3.90;;;2.10;;
15112;SDS011;7657;50.140;7.076;2023-06-14T09:59:52;2.38;;;2.08;;
15112;SDS011;7657;50.140;7.076;2023-06-14T10:02:26;3.28;;;2.70;;
15112;SDS011;7657;50.140;7.076;2023-06-14T10:04:58;3.88;;;2.38;;
15112;SDS011;7657;50.140;7.076;2023-06-14T10:07:32;5.00;;;2.47;;
15112;SDS011;7657;50.140;7.076;2023-06-14T10:10:01;2.88;;;2.10;;
15112;SDS011;7657;50.140;7.076;2023-06-14T10:12:29;3.53;;;1.90;;
15112;SDS011;7657;50.140;7.076;2023-06-14T10:14:57;2.22;;;2.05;;
15112;SDS011;7657;50.140;7.076;2023-06-14T10:17:31;2.10;;;1.95;;
15112;SDS011;7657;50.140;7.076;2023-06-14T10:20:16;2.70;;;2.08;;
15112;SDS011;7657;50.140;7.076;2023-06-14T10:22:50;4.43;;;2.20;;
15112;SDS011;7657;50.140;7.076;2023-06-14T10:25:27;3.15;;;2.10;;
15112;SDS011;7657;50.140;7.076;2023-06-14T10:31:02;4.90;;;2.20;;
15112;SDS011;7657;50.140;7.076;2023-06-14T10:33:34;7.40;;;2.47;;
15112;SDS011;7657;50.140;7.076;2023-06-14T10:36:09;5.32;;;2.75;;
15112;SDS011;7657;50.140;7.076;2023-06-14T10:38:59;2.25;;;2.05;;
15112;SDS011;7657;50.140;7.076;2023-06-14T10:41:27;3.83;;;2.22;;
15112;SDS011;7657;50.140;7.076;2023-06-14T10:44:10;3.47;;;2.10;;
15112;SDS011;7657;50.140;7.076;2023-06-14T10:46:58;5.10;;;2.13;;
15112;SDS011;7657;50.140;7.076;2023-06-14T10:49:37;2.85;;;2.10;;
15112;SDS011;7657;50.140;7.076;2023-06-14T10:52:08;2.17;;;1.85;;
15112;SDS011;7657;50.140;7.076;2023-06-14T10:55:01;3.42;;;1.90;;
15112;SDS011;7657;50.140;7.076;2023-06-14T10:57:31;2.58;;;1.95;;
15112;SDS011;7657;50.140;7.076;2023-06-14T10:59:58;3.35;;;1.88;;
15112;SDS011;7657;50.140;7.076;2023-06-14T11:05:28;2.35;;;2.10;;
15112;SDS011;7657;50.140;7.076;2023-06-14T11:07:58;4.05;;;2.10;;
15112;SDS011;7657;50.140;7.076;2023-06-14T11:10:37;3.80;;;2.00;;
15112;SDS011;7657;50.140;7.076;2023-06-14T11:13:05;2.28;;;2.08;;
15112;SDS011;7657;50.140;7.076;2023-06-14T11:15:33;3.10;;;2.17;;
15112;SDS011;7657;50.140;7.076;2023-06-14T11:18:01;4.47;;;2.45;;
15112;SDS011;7657;50.140;7.076;2023-06-14T11:20:31;4.57;;;2.10;;
15112;SDS011;7657;50.140;7.076;2023-06-14T11:22:58;3.45;;;2.17;;
15112;SDS011;7657;50.140;7.076;2023-06-14T11:25:26;1.90;;;1.80;;
15112;SDS011;7657;50.140;7.076;2023-06-14T11:27:53;3.45;;;2.30;;
15112;SDS011;7657;50.140;7.076;2023-06-14T11:30:21;4.25;;;2.55;;
15112;SDS011;7657;50.140;7.076;2023-06-14T11:32:48;5.07;;;2.40;;
15112;SDS011;7657;50.140;7.076;2023-06-14T11:35:17;4.85;;;2.20;;
15112;SDS011;7657;50.140;7.076;2023-06-14T11:37:45;2.25;;;2.05;;
15112;SDS011;7657;50.140;7.076;2023-06-14T11:40:13;3.70;;;2.20;;
15112;SDS011;7657;50.140;7.076;2023-06-14T11:42:40;4.80;;;2.22;;
15112;SDS011;7657;50.140;7.076;2023-06-14T11:45:08;4.15;;;2.30;;
15112;SDS011;7657;50.140;7.076;2023-06-14T11:47:36;2.83;;;2.20;;
15112;SDS011;7657;50.140;7.076;2023-06-14T11:50:05;4.35;;;2.28;;
15112;SDS011;7657;50.140;7.076;2023-06-14T11:52:33;3.72;;;2.30;;
15112;SDS011;7657;50.140;7.076;2023-06-14T11:55:02;4.78;;;2.40;;
15112;SDS011;7657;50.140;7.076;2023-06-14T11:57:30;4.85;;;3.08;;
15112;SDS011;7657;50.140;7.076;2023-06-14T12:00:02;3.17;;;1.92;;
15112;SDS011;7657;50.140;7.076;2023-06-14T12:02:32;4.80;;;2.20;;
15112;SDS011;7657;50.140;7.076;2023-06-14T12:05:03;2.30;;;2.05;;
15112;SDS011;7657;50.140;7.076;2023-06-14T12:07:32;4.35;;;2.17;;
15112;SDS011;7657;50.140;7.076;2023-06-14T12:10:08;2.83;;;2.10;;
15112;SDS011;7657;50.140;7.076;2023-06-14T12:12:36;2.92;;;2.25;;
15112;SDS011;7657;50.140;7.076;2023-06-14T12:15:05;3.42;;;2.50;;
15112;SDS011;7657;50.140;7.076;2023-06-14T12:17:33;3.63;;;2.10;;
15112;SDS011;7657;50.140;7.076;2023-06-14T12:20:05;2.80;;;1.90;;
15112;SDS011;7657;50.140;7.076;2023-06-14T12:22:36;4.13;;;2.20;;
15112;SDS011;7657;50.140;7.076;2023-06-14T12:25:03;6.20;;;2.38;;
15112;SDS011;7657;50.140;7.076;2023-06-14T12:27:32;2.28;;;1.92;;
15112;SDS011;7657;50.140;7.076;2023-06-14T12:29:59;3.25;;;2.08;;
15112;SDS011;7657;50.140;7.076;2023-06-14T12:32:27;5.90;;;2.17;;
15112;SDS011;7657;50.140;7.076;2023-06-14T12:34:54;4.80;;;2.00;;
15112;SDS011;7657;50.140;7.076;2023-06-14T12:37:21;2.78;;;1.95;;
15112;SDS011;7657;50.140;7.076;2023-06-14T12:39:48;2.72;;;2.10;;
15112;SDS011;7657;50.140;7.076;2023-06-14T12:42:16;2.22;;;1.80;;
15112;SDS011;7657;50.140;7.076;2023-06-14T12:44:44;2.17;;;1.98;;
15112;SDS011;7657;50.140;7.076;2023-06-14T12:47:11;2.20;;;1.83;;
15112;SDS011;7657;50.140;7.076;2023-06-14T12:49:38;2.00;;;1.90;;
15112;SDS011;7657;50.140;7.076;2023-06-14T12:52:07;4.13;;;1.80;;
15112;SDS011;7657;50.140;7.076;2023-06-14T12:54:35;3.85;;;1.90;;
15112;SDS011;7657;50.140;7.076;2023-06-14T12:57:02;4.53;;;2.08;;
15112;SDS011;7657;50.140;7.076;2023-06-14T12:59:29;2.65;;;1.77;;
15112;SDS011;7657;50.140;7.076;2023-06-14T13:02:00;2.08;;;1.88;;
15112;SDS011;7657;50.140;7.076;2023-06-14T13:04:37;2.95;;;1.83;;
15112;SDS011;7657;50.140;7.076;2023-06-14T13:07:04;2.10;;;1.80;;
15112;SDS011;7657;50.140;7.076;2023-06-14T13:09:31;1.70;;;1.60;;
15112;SDS011;7657;50.140;7.076;2023-06-14T13:11:58;3.35;;;2.10;;
15112;SDS011;7657;50.140;7.076;2023-06-14T13:14:26;1.98;;;1.70;;
15112;SDS011;7657;50.140;7.076;2023-06-14T13:16:53;5.43;;;1.80;;
15112;SDS011;7657;50.140;7.076;2023-06-14T13:19:21;2.60;;;1.80;;
15112;SDS011;7657;50.140;7.076;2023-06-14T13:21:48;3.33;;;1.58;;
15112;SDS011;7657;50.140;7.076;2023-06-14T13:24:15;2.70;;;1.70;;
15112;SDS011;7657;50.140;7.076;2023-06-14T13:26:42;1.98;;;1.55;;
15112;SDS011;7657;50.140;7.076;2023-06-14T13:29:09;4.38;;;1.42;;
15112;SDS011;7657;50.140;7.076;2023-06-14T13:31:36;4.05;;;1.80;;
15112;SDS011;7657;50.140;7.076;2023-06-14T13:34:03;2.10;;;1.75;;
15112;SDS011;7657;50.140;7.076;2023-06-14T13:36:32;2.05;;;1.42;;
15112;SDS011;7657;50.140;7.076;2023-06-14T13:38:58;3.83;;;1.90;;
15112;SDS011;7657;50.140;7.076;2023-06-14T13:41:25;1.98;;;1.50;;
15112;SDS011;7657;50.140;7.076;2023-06-14T13:43:57;2.03;;;1.70;;
15112;SDS011;7657;50.140;7.076;2023-06-14T13:46:24;3.58;;;1.65;;
15112;SDS011;7657;50.140;7.076;2023-06-14T13:48:51;2.72;;;1.65;;
15112;SDS011;7657;50.140;7.076;2023-06-14T13:51:19;2.70;;;1.77;;
15112;SDS011;7657;50.140;7.076;2023-06-14T13:53:47;2.63;;;1.98;;
15112;SDS011;7657;50.140;7.076;2023-06-14T13:56:15;4.07;;;1.60;;
15112;SDS011;7657;50.140;7.076;2023-06-14T13:58:43;1.70;;;1.60;;
15112;SDS011;7657;50.140;7.076;2023-06-14T14:01:10;3.28;;;1.60;;
15112;SDS011;7657;50.140;7.076;2023-06-14T14:03:37;2.17;;;1.58;;
15112;SDS011;7657;50.140;7.076;2023-06-14T14:06:04;5.05;;;1.85;;
15112;SDS011;7657;50.140;7.076;2023-06-14T14:08:34;1.70;;;1.60;;
15112;SDS011;7657;50.140;7.076;2023-06-14T14:11:03;3.88;;;1.80;;
15112;SDS011;7657;50.140;7.076;2023-06-14T14:13:30;4.40;;;1.90;;
15112;SDS011;7657;50.140;7.076;2023-06-14T14:15:57;3.25;;;1.92;;
15112;SDS011;7657;50.140;7.076;2023-06-14T14:18:25;3.80;;;2.00;;
15112;SDS011;7657;50.140;7.076;2023-06-14T14:20:52;2.58;;;1.90;;
15112;SDS011;7657;50.140;7.076;2023-06-14T14:23:18;2.10;;;1.95;;
15112;SDS011;7657;50.140;7.076;2023-06-14T14:25:46;4.72;;;1.70;;
15112;SDS011;7657;50.140;7.076;2023-06-14T14:28:14;2.00;;;1.70;;
15112;SDS011;7657;50.140;7.076;2023-06-14T14:30:43;1.95;;;1.75;;
15112;SDS011;7657;50.140;7.076;2023-06-14T14:33:12;3.25;;;2.00;;
15112;SDS011;7657;50.140;7.076;2023-06-14T14:35:41;4.60;;;1.90;;
15112;SDS011;7657;50.140;7.076;2023-06-14T14:38:08;3.05;;;2.10;;
15112;SDS011;7657;50.140;7.076;2023-06-14T14:40:35;2.65;;;2.00;;
15112;SDS011;7657;50.140;7.076;2023-06-14T14:43:02;4.15;;;2.00;;
15112;SDS011;7657;50.140;7.076;2023-06-14T14:45:30;2.40;;;1.80;;
15112;SDS011;7657;50.140;7.076;2023-06-14T14:47:57;3.33;;;1.80;;
15112;SDS011;7657;50.140;7.076;2023-06-14T14:50:24;4.75;;;2.00;;
15112;SDS011;7657;50.140;7.076;2023-06-14T14:52:52;1.92;;;1.83;;
15112;SDS011;7657;50.140;7.076;2023-06-14T14:55:18;7.22;;;2.25;;
15112;SDS011;7657;50.140;7.076;2023-06-14T14:57:46;3.97;;;2.13;;
15112;SDS011;7657;50.140;7.076;2023-06-14T15:00:13;3.10;;;1.88;;
15112;SDS011;7657;50.140;7.076;2023-06-14T15:02:41;1.88;;;1.77;;
15112;SDS011;7657;50.140;7.076;2023-06-14T15:05:08;4.28;;;2.10;;
15112;SDS011;7657;50.140;7.076;2023-06-14T15:07:35;3.58;;;2.47;;
15112;SDS011;7657;50.140;7.076;2023-06-14T15:10:05;1.95;;;1.77;;
15112;SDS011;7657;50.140;7.076;2023-06-14T15:12:33;1.75;;;1.63;;